Time;durP1;ratioP1;P1;durP2;ratioP2;P2;SDS_P1;SDS_P2;PMS_P1;PMS_P2;Temp;Humidity;BMP_temperature;BMP_pressure;BME280_temperature;BME280_humidity;BME280_pressure;Samples;Min_cycle;Max_cycle;Signal;HPM_P1;HPM_P2
2022/12/01 00:01:35;;;;;;;4.97;2.55;;;2.30;99.90;;;;;;4386404;32;20488;-72
2022/12/01 00:04:01;;;;;;;3.55;3.25;;;2.20;99.90;;;;;;4372864;32;20085;-76
2022/12/01 00:06:26;;;;;;;1.77;1.67;;;2.20;99.90;;;;;;4367182;32;21182;-74
2022/12/01 00:10:51;;;;;;;6.12;2.53;;;2.00;99.90;;;;;;4383311;32;20091;-71
2022/12/01 00:11:37;;;;;;;4.47;2.60;;;2.00;99.90;;;;;;4374439;32;20125;-73
2022/12/01 00:14:04;;;;;;;2.53;2.15;;;2.10;99.90;;;;;;4384792;32;20086;-72
2022/12/01 00:16:30;;;;;;;3.40;2.20;;;2.00;99.90;;;;;;4376040;32;20424;-75
2022/12/01 00:18:55;;;;;;;8.57;3.47;;;2.00;99.90;;;;;;4372451;32;20082;-74
2022/12/01 00:21:23;;;;;;;29.55;5.12;;;2.00;99.90;;;;;;4383828;32;20074;-72
2022/12/01 00:23:52;;;;;;;5.78;3.10;;;2.10;99.90;;;;;;4385241;32;20074;-72
2022/12/01 00:26:18;;;;;;;6.28;2.50;;;2.10;99.90;;;;;;4384810;32;20154;-74
2022/12/01 00:28:49;;;;;;;22.02;4.47;;;2.10;99.90;;;;;;4388336;32;20075;-73
2022/12/01 00:31:14;;;;;;;7.00;3.83;;;2.20;99.90;;;;;;4382961;32;20075;-73
2022/12/01 00:33:40;;;;;;;10.10;5.12;;;2.30;99.90;;;;;;4376124;32;20070;-72
2022/12/01 00:36:06;;;;;;;3.10;2.75;;;2.30;99.90;;;;;;4366840;32;20129;-73
2022/12/01 00:38:32;;;;;;;5.95;3.70;;;2.20;99.90;;;;;;4382681;32;20509;-72
2022/12/01 00:40:58;;;;;;;7.12;2.37;;;2.30;99.90;;;;;;4388900;32;20502;-73
2022/12/01 00:43:23;;;;;;;2.72;2.37;;;2.10;99.90;;;;;;4387431;32;20144;-71
2022/12/01 00:45:50;;;;;;;4.00;3.60;;;2.00;99.90;;;;;;4380740;32;20066;-74
2022/12/01 00:48:16;;;;;;;5.15;3.03;;;2.00;99.90;;;;;;4373424;32;20138;-74
2022/12/01 00:50:42;;;;;;;5.43;1.45;;;2.00;99.90;;;;;;4381216;32;20075;-72
2022/12/01 00:53:08;;;;;;;2.60;2.10;;;2.10;99.90;;;;;;4387439;32;20127;-73
2022/12/01 00:55:34;;;;;;;3.08;2.33;;;2.10;99.90;;;;;;4390887;32;20066;-74
2022/12/01 00:57:59;;;;;;;10.27;2.65;;;2.10;99.90;;;;;;4388089;32;20081;-75
2022/12/01 01:00:25;;;;;;;4.43;3.22;;;2.30;99.90;;;;;;4392283;32;20079;-74
2022/12/01 01:02:50;;;;;;;11.35;3.87;;;2.30;99.90;;;;;;4388036;32;20077;-77
2022/12/01 01:05:16;;;;;;;3.42;2.00;;;2.20;99.90;;;;;;4368133;32;20391;-77
2022/12/01 01:07:41;;;;;;;14.93;3.70;;;2.20;99.90;;;;;;4377331;32;20249;-75
2022/12/01 01:10:07;;;;;;;4.07;2.85;;;2.20;99.90;;;;;;4386865;32;20106;-72
2022/12/01 01:12:33;;;;;;;2.80;2.08;;;2.20;99.90;;;;;;4390347;32;20613;-73
2022/12/01 01:14:58;;;;;;;7.28;3.17;;;2.10;99.90;;;;;;4388053;32;20565;-77
2022/12/01 01:17:31;;;;;;;6.75;3.65;;;2.10;99.90;;;;;;4374793;32;20107;-74
2022/12/01 01:19:57;;;;;;;3.03;2.42;;;2.00;99.90;;;;;;4380598;32;20082;-73
2022/12/01 01:22:22;;;;;;;4.62;1.87;;;2.10;99.90;;;;;;4388822;32;20121;-73
2022/12/01 01:24:48;;;;;;;4.78;2.10;;;2.10;99.90;;;;;;4387847;32;20065;-72
2022/12/01 01:27:13;;;;;;;5.97;3.62;;;2.00;99.90;;;;;;4388521;32;20074;-72
2022/12/01 01:29:39;;;;;;;3.22;2.60;;;2.00;99.90;;;;;;4387694;32;20495;-73
2022/12/01 01:32:04;;;;;;;2.50;1.90;;;2.00;99.90;;;;;;4387596;32;20075;-74
2022/12/01 01:34:30;;;;;;;5.43;3.00;;;2.00;99.90;;;;;;4370840;32;20137;-75
2022/12/01 01:36:55;;;;;;;2.67;1.98;;;1.90;99.90;;;;;;4372402;32;20098;-73
2022/12/01 01:39:21;;;;;;;9.82;4.07;;;1.90;99.90;;;;;;4389442;32;20400;-74
2022/12/01 01:41:46;;;;;;;13.25;4.87;;;1.90;99.90;;;;;;4390439;32;20140;-73
2022/12/01 01:44:49;;;;;;;18.12;3.33;;;2.00;99.90;;;;;;4389494;32;20085;-73
2022/12/01 01:47:19;;;;;;;14.40;5.50;;;2.00;99.90;;;;;;4361458;32;20058;-76
2022/12/01 01:49:45;;;;;;;1.12;1.10;;;2.10;99.90;;;;;;4377617;32;20088;-73
2022/12/01 01:52:11;;;;;;;10.43;4.25;;;2.20;99.90;;;;;;4389571;32;20059;-72
2022/12/01 01:54:41;;;;;;;5.22;2.20;;;2.20;99.90;;;;;;4384032;32;20208;-74
2022/12/01 01:57:10;;;;;;;2.87;2.62;;;2.10;99.90;;;;;;4388938;32;20097;-73
2022/12/01 01:59:43;;;;;;;2.33;2.12;;;2.10;99.90;;;;;;4389058;32;20466;-75
2022/12/01 02:02:11;;;;;;;2.00;1.85;;;2.10;99.90;;;;;;4388720;32;20157;-73
2022/12/01 02:04:40;;;;;;;14.00;3.37;;;2.00;99.90;;;;;;4372353;32;20086;-77
2022/12/01 02:07:07;;;;;;;2.15;1.95;;;2.00;99.90;;;;;;4374026;32;20089;-73
2022/12/01 02:09:34;;;;;;;1.67;1.58;;;2.10;99.90;;;;;;4389067;32;20070;-72
2022/12/01 02:12:40;;;;;;;3.17;2.30;;;2.10;99.90;;;;;;4387976;32;20626;-73
2022/12/01 02:15:14;;;;;;;7.72;2.85;;;2.10;99.90;;;;;;4374169;32;20075;-76
2022/12/01 02:18:01;;;;;;;2.97;2.70;;;2.00;99.90;;;;;;4376275;32;20494;-76
2022/12/01 02:20:55;;;;;;;6.35;4.07;;;2.00;99.90;;;;;;4366984;32;20531;-73
2022/12/01 02:24:01;;;;;;;3.87;2.53;;;2.00;99.90;;;;;;4374982;32;20079;-74
2022/12/01 02:26:42;;;;;;;1.77;1.67;;;1.90;99.90;;;;;;4366795;32;20086;-73
2022/12/01 02:29:26;;;;;;;4.65;2.50;;;1.90;99.90;;;;;;4387819;32;20090;-74
2022/12/01 02:32:11;;;;;;;6.35;3.87;;;1.80;99.90;;;;;;4387993;32;20113;-74
2022/12/01 02:35:02;;;;;;;3.80;2.53;;;1.70;99.90;;;;;;4369908;32;20065;-76
2022/12/01 02:37:47;;;;;;;17.62;3.30;;;1.70;99.90;;;;;;4376537;32;20086;-74
2022/12/01 02:40:22;;;;;;;2.47;2.20;;;1.90;99.90;;;;;;4386703;32;20107;-73
2022/12/01 02:43:02;;;;;;;6.25;3.67;;;1.90;99.90;;;;;;4389564;32;20086;-73
2022/12/01 02:45:47;;;;;;;12.97;4.23;;;1.80;99.90;;;;;;4380013;32;20090;-71
2022/12/01 02:48:19;;;;;;;4.62;2.37;;;1.90;99.90;;;;;;4373975;32;20515;-75
2022/12/01 02:50:45;;;;;;;2.55;2.35;;;1.90;99.90;;;;;;4378346;32;20070;-72
2022/12/01 02:53:16;;;;;;;5.70;3.08;;;1.80;99.90;;;;;;4385544;32;20162;-71
2022/12/01 02:55:52;;;;;;;3.12;2.83;;;1.90;99.90;;;;;;4386594;32;20090;-71
2022/12/01 02:58:18;;;;;;;2.62;2.00;;;1.80;99.90;;;;;;4387390;32;20392;-72
2022/12/01 03:01:16;;;;;;;20.48;3.33;;;1.80;99.90;;;;;;4386366;32;20078;-73
2022/12/01 03:03:54;;;;;;;5.68;4.00;;;1.80;99.90;;;;;;4366140;32;20414;-73
2022/12/01 03:06:29;;;;;;;2.92;2.05;;;1.90;99.90;;;;;;4365944;32;20094;-71
2022/12/01 03:09:01;;;;;;;4.70;3.42;;;1.90;99.90;;;;;;4383556;32;20078;-72
2022/12/01 03:11:48;;;;;;;13.82;4.95;;;1.90;99.90;;;;;;4385604;32;20089;-73
2022/12/01 03:14:27;;;;;;;8.35;3.17;;;1.80;99.90;;;;;;4372068;32;20077;-71
2022/12/01 03:16:53;;;;;;;2.17;1.98;;;1.80;99.90;;;;;;4373651;32;20078;-73
2022/12/01 03:19:46;;;;;;;5.12;2.90;;;1.80;99.90;;;;;;4372569;32;20054;-75
2022/12/01 03:22:21;;;;;;;2.08;1.95;;;1.80;99.90;;;;;;4383128;32;20106;-71
2022/12/01 03:24:49;;;;;;;6.57;4.10;;;1.70;99.90;;;;;;4389826;32;20501;-73
2022/12/01 03:27:19;;;;;;;4.32;2.50;;;1.80;99.90;;;;;;4386295;32;20550;-72
2022/12/01 03:29:49;;;;;;;1.95;1.85;;;1.80;99.90;;;;;;4387881;32;20062;-72
2022/12/01 03:32:22;;;;;;;2.83;2.35;;;1.80;99.90;;;;;;4386342;32;20094;-73
2022/12/01 03:34:55;;;;;;;7.87;3.95;;;1.80;99.90;;;;;;4367225;32;20137;-75
2022/12/01 03:37:30;;;;;;;2.53;2.15;;;1.80;99.90;;;;;;4376937;32;20074;-71
2022/12/01 03:39:56;;;;;;;10.13;4.70;;;1.80;99.90;;;;;;4383888;32;20176;-72
2022/12/01 03:42:26;;;;;;;6.80;3.33;;;1.80;99.90;;;;;;4387957;32;20081;-72
2022/12/01 03:44:55;;;;;;;7.82;4.10;;;1.80;99.90;;;;;;4388985;32;20083;-74
2022/12/01 03:47:24;;;;;;;8.93;3.15;;;1.70;99.90;;;;;;4372140;32;21672;-72
2022/12/01 03:49:52;;;;;;;4.00;1.70;;;1.70;99.90;;;;;;4373987;32;20184;-71
2022/12/01 03:52:42;;;;;;;1.35;1.30;;;1.60;99.90;;;;;;4385049;32;20055;-71
2022/12/01 03:55:13;;;;;;;3.35;2.70;;;1.60;99.90;;;;;;4372939;32;20126;-71
2022/12/01 03:57:57;;;;;;;6.50;4.15;;;1.60;99.90;;;;;;4387192;32;20483;-71
2022/12/01 04:00:23;;;;;;;5.57;3.67;;;1.60;99.90;;;;;;4374118;32;20110;-73
2022/12/01 04:02:56;;;;;;;3.62;2.37;;;1.60;99.90;;;;;;4381592;32;20659;-74
2022/12/01 04:05:21;;;;;;;3.00;2.42;;;1.60;99.90;;;;;;4369469;32;20087;-74
2022/12/01 04:07:47;;;;;;;2.42;2.22;;;1.60;99.90;;;;;;4374226;32;20085;-76
2022/12/01 04:10:12;;;;;;;5.93;3.40;;;1.70;99.90;;;;;;4385219;32;20198;-71
2022/12/01 04:12:38;;;;;;;3.15;2.60;;;1.70;99.90;;;;;;4389468;32;20130;-72
2022/12/01 04:15:07;;;;;;;2.75;2.33;;;1.70;99.90;;;;;;4393746;32;20134;-74
2022/12/01 04:17:33;;;;;;;4.07;2.72;;;1.70;99.90;;;;;;4376080;32;20071;-74
2022/12/01 04:19:58;;;;;;;12.60;4.70;;;1.70;99.90;;;;;;4377799;32;20237;-73
2022/12/01 04:22:25;;;;;;;2.08;1.92;;;1.70;99.90;;;;;;4387153;32;20133;-71
2022/12/01 04:24:50;;;;;;;10.75;5.28;;;1.70;99.90;;;;;;4392020;32;20078;-71
2022/12/01 04:27:16;;;;;;;2.10;1.40;;;1.70;99.90;;;;;;4386705;32;20086;-73
2022/12/01 04:29:41;;;;;;;3.25;2.53;;;1.70;99.90;;;;;;4386019;32;20468;-73
2022/12/01 04:32:07;;;;;;;4.03;2.95;;;1.70;99.90;;;;;;4389794;32;20593;-72
2022/12/01 04:34:32;;;;;;;8.88;3.22;;;1.70;99.90;;;;;;4373866;32;20133;-72
2022/12/01 04:36:58;;;;;;;1.55;1.45;;;1.70;99.90;;;;;;4372103;32;21171;-73
2022/12/01 04:39:23;;;;;;;11.20;4.95;;;1.80;99.90;;;;;;4390270;32;20063;-71
2022/12/01 04:41:49;;;;;;;2.45;2.25;;;1.70;99.90;;;;;;4387162;32;20586;-73
2022/12/01 04:44:14;;;;;;;10.15;5.32;;;1.70;99.90;;;;;;4388794;32;20074;-72
2022/12/01 04:46:40;;;;;;;11.05;6.18;;;1.70;99.90;;;;;;4380245;32;20078;-74
2022/12/01 04:49:06;;;;;;;7.70;2.42;;;1.60;99.90;;;;;;4371897;32;20075;-72
2022/12/01 04:51:31;;;;;;;2.12;1.55;;;1.60;99.90;;;;;;4384331;32;20078;-72
2022/12/01 04:53:57;;;;;;;2.97;2.65;;;1.70;99.90;;;;;;4388489;32;20062;-71
2022/12/01 04:56:23;;;;;;;6.07;3.47;;;1.60;99.90;;;;;;4388230;32;20463;-71
2022/12/01 04:58:48;;;;;;;10.90;4.57;;;1.60;99.90;;;;;;4389271;32;20089;-71
2022/12/01 05:01:16;;;;;;;4.03;3.00;;;1.60;99.90;;;;;;4387147;32;20070;-72
2022/12/01 05:03:45;;;;;;;15.73;3.97;;;1.70;99.90;;;;;;4379701;32;20070;-74
2022/12/01 05:06:14;;;;;;;2.62;2.10;;;1.70;99.90;;;;;;4373497;32;20122;-74
2022/12/01 05:08:40;;;;;;;3.12;2.83;;;1.70;99.90;;;;;;4385987;32;20474;-73
2022/12/01 05:11:07;;;;;;;3.70;1.80;;;1.60;99.90;;;;;;4389976;32;20158;-73
2022/12/01 05:13:35;;;;;;;5.03;2.95;;;1.70;99.90;;;;;;4387960;32;21599;-72
2022/12/01 05:16:06;;;;;;;5.20;3.22;;;1.60;99.90;;;;;;4379667;32;20308;-71
2022/12/01 05:18:32;;;;;;;4.00;3.17;;;1.70;99.90;;;;;;4373642;32;20396;-73
2022/12/01 05:20:57;;;;;;;2.30;2.00;;;1.70;99.90;;;;;;4386567;32;20089;-76
2022/12/01 05:23:25;;;;;;;5.60;4.20;;;1.60;99.90;;;;;;4356004;32;20097;-77
2022/12/01 05:25:50;;;;;;;2.42;1.98;;;1.60;99.90;;;;;;4357709;32;20746;-75
2022/12/01 05:28:16;;;;;;;3.83;2.80;;;1.60;99.90;;;;;;4352452;32;20095;-77
2022/12/01 05:30:42;;;;;;;1.50;1.40;;;1.60;99.90;;;;;;4353939;32;20078;-77
2022/12/01 05:33:07;;;;;;;2.75;1.90;;;1.60;99.90;;;;;;4346473;32;20109;-76
2022/12/01 05:35:33;;;;;;;1.77;1.67;;;1.60;99.90;;;;;;4336830;32;20125;-75
2022/12/01 05:37:58;;;;;;;2.85;1.62;;;1.70;99.90;;;;;;4369074;32;20066;-70
2022/12/01 05:40:24;;;;;;;1.33;1.30;;;1.70;99.90;;;;;;4389320;32;20548;-74
2022/12/01 05:42:49;;;;;;;9.02;3.20;;;1.70;99.90;;;;;;4386637;32;20066;-73
2022/12/01 05:45:15;;;;;;;2.60;1.90;;;1.60;99.90;;;;;;4387571;32;20577;-75
2022/12/01 05:47:40;;;;;;;2.50;2.30;;;1.60;99.90;;;;;;4374627;32;20361;-74
2022/12/01 05:50:07;;;;;;;5.32;3.37;;;1.60;99.90;;;;;;4377906;32;20083;-73
2022/12/01 05:52:33;;;;;;;3.05;2.08;;;1.60;99.90;;;;;;4370760;32;20992;-76
2022/12/01 05:54:59;;;;;;;7.32;4.28;;;1.60;99.90;;;;;;4351324;32;20087;-75
2022/12/01 05:57:25;;;;;;;11.20;4.85;;;1.60;99.90;;;;;;4365848;32;20069;-71
2022/12/01 05:59:51;;;;;;;3.00;2.17;;;1.50;99.90;;;;;;4386571;32;20169;-74
2022/12/01 06:02:17;;;;;;;3.28;2.87;;;1.60;99.90;;;;;;4380916;32;20545;-76
2022/12/01 06:04:43;;;;;;;6.85;2.85;;;1.60;99.90;;;;;;4344669;32;20519;-75
2022/12/01 06:07:08;;;;;;;4.85;3.03;;;1.60;99.90;;;;;;4343999;32;20082;-74
2022/12/01 06:09:34;;;;;;;7.07;1.87;;;1.70;99.90;;;;;;4339163;32;20090;-75
2022/12/01 06:11:59;;;;;;;2.75;2.50;;;1.80;99.90;;;;;;4346889;32;20464;-74
2022/12/01 06:14:25;;;;;;;7.12;3.58;;;1.80;99.90;;;;;;4334355;32;20083;-74
2022/12/01 06:16:50;;;;;;;3.53;2.83;;;1.80;99.90;;;;;;4331077;32;20259;-77
2022/12/01 06:19:16;;;;;;;5.97;3.97;;;1.80;99.90;;;;;;4301332;32;20399;-74
2022/12/01 06:21:41;;;;;;;14.90;2.90;;;1.80;99.90;;;;;;4316290;32;20085;-74
2022/12/01 06:24:07;;;;;;;12.10;5.37;;;1.80;99.90;;;;;;4278062;32;20182;-76
2022/12/01 06:26:32;;;;;;;10.70;2.62;;;1.70;99.90;;;;;;4292534;32;20751;-75
2022/12/01 06:28:58;;;;;;;3.70;2.50;;;1.70;99.90;;;;;;4302888;32;20463;-78
2022/12/01 06:31:23;;;;;;;2.58;2.10;;;1.60;99.90;;;;;;4291032;32;20296;-76
2022/12/01 06:33:49;;;;;;;3.47;2.58;;;1.60;99.90;;;;;;4308469;32;20314;-76
2022/12/01 06:36:14;;;;;;;7.12;2.92;;;1.60;99.90;;;;;;4316826;32;20351;-75
2022/12/01 06:38:40;;;;;;;3.90;3.47;;;1.70;99.90;;;;;;4324494;32;20251;-77
2022/12/01 06:41:05;;;;;;;3.85;2.95;;;1.70;99.90;;;;;;4322837;32;20216;-76
2022/12/01 06:43:34;;;;;;;3.75;2.67;;;1.70;99.90;;;;;;4329222;32;20533;-75
2022/12/01 06:46:02;;;;;;;12.07;1.80;;;1.60;99.90;;;;;;4342443;32;20086;-76
2022/12/01 06:48:28;;;;;;;5.65;2.58;;;1.50;99.90;;;;;;4347674;32;20090;-76
2022/12/01 06:50:57;;;;;;;2.28;2.08;;;1.50;99.90;;;;;;4342883;32;20286;-76
2022/12/01 06:53:22;;;;;;;0.88;0.88;;;1.50;99.90;;;;;;4347186;32;20512;-76
2022/12/01 06:55:48;;;;;;;2.97;1.35;;;1.50;99.90;;;;;;4362013;32;20136;-77
2022/12/01 06:58:13;;;;;;;6.40;3.87;;;1.50;99.90;;;;;;4361563;32;20240;-76
2022/12/01 07:00:39;;;;;;;4.30;2.17;;;1.50;99.90;;;;;;4340989;32;20105;-76
2022/12/01 07:03:04;;;;;;;2.75;1.92;;;1.50;99.90;;;;;;4335478;32;20349;-75
2022/12/01 07:05:30;;;;;;;1.52;1.42;;;1.50;99.90;;;;;;4335146;32;20766;-77
2022/12/01 07:07:56;;;;;;;5.68;3.12;;;1.60;99.90;;;;;;4332754;32;20125;-77
2022/12/01 07:10:21;;;;;;;20.83;3.58;;;1.60;99.90;;;;;;4347503;32;20339;-75
2022/12/01 07:12:47;;;;;;;4.82;2.45;;;1.70;99.90;;;;;;4358373;32;20094;-76
2022/12/01 07:15:12;;;;;;;2.42;2.22;;;1.70;99.90;;;;;;4356614;32;20621;-75
2022/12/01 07:17:38;;;;;;;3.45;2.55;;;1.70;99.90;;;;;;4361228;32;20196;-75
2022/12/01 07:20:04;;;;;;;8.27;2.78;;;1.70;99.90;;;;;;4356781;32;20243;-76
2022/12/01 07:22:29;;;;;;;9.80;4.12;;;1.60;99.90;;;;;;4351597;32;20087;-75
2022/12/01 07:24:55;;;;;;;4.57;3.08;;;1.60;99.90;;;;;;4362988;32;20106;-76
2022/12/01 07:27:20;;;;;;;4.35;2.17;;;1.70;99.90;;;;;;4367172;32;20089;-75
2022/12/01 07:29:46;;;;;;;4.47;3.30;;;1.70;99.90;;;;;;4363842;32;20376;-78
2022/12/01 07:32:11;;;;;;;2.78;2.50;;;1.80;99.90;;;;;;4344734;32;100534;-77
2022/12/01 07:34:37;;;;;;;4.85;2.75;;;1.80;99.90;;;;;;4331034;32;20111;-76
2022/12/01 07:37:02;;;;;;;4.37;2.78;;;1.80;99.90;;;;;;4345076;32;20117;-76
2022/12/01 07:39:28;;;;;;;6.82;3.85;;;1.70;99.90;;;;;;4361163;32;20686;-76
2022/12/01 07:41:53;;;;;;;13.40;4.22;;;1.70;99.90;;;;;;4367773;32;20597;-78
2022/12/01 07:44:18;;;;;;;5.75;3.22;;;1.70;99.90;;;;;;4366952;32;20133;-77
2022/12/01 07:46:44;;;;;;;7.03;4.00;;;1.70;99.90;;;;;;4368089;32;20514;-77
2022/12/01 07:49:13;;;;;;;1.87;1.77;;;1.70;99.90;;;;;;4356968;32;20350;-76
2022/12/01 07:51:39;;;;;;;3.47;2.78;;;1.90;99.90;;;;;;4338184;32;20185;-75
2022/12/01 07:54:05;;;;;;;8.35;3.72;;;1.90;99.90;;;;;;4344696;32;20694;-76
2022/12/01 07:56:31;;;;;;;9.85;5.57;;;1.90;99.90;;;;;;4358821;32;21375;-74
2022/12/01 07:58:57;;;;;;;2.37;2.05;;;2.00;99.90;;;;;;4356484;32;20632;-76
2022/12/01 08:01:24;;;;;;;4.15;3.05;;;2.00;99.90;;;;;;4349586;32;20624;-75
2022/12/01 08:03:53;;;;;;;3.75;2.08;;;1.90;99.90;;;;;;4336710;32;20241;-75
2022/12/01 08:06:19;;;;;;;5.05;3.60;;;1.90;99.90;;;;;;4349582;32;20190;-77
2022/12/01 08:08:45;;;;;;;6.22;2.65;;;1.90;99.90;;;;;;4354952;32;20090;-77
2022/12/01 08:11:14;;;;;;;10.25;4.80;;;2.00;99.90;;;;;;4355710;32;20164;-75
2022/12/01 08:13:41;;;;;;;4.45;2.75;;;2.10;99.90;;;;;;4355622;32;20344;-75
2022/12/01 08:16:09;;;;;;;7.43;3.30;;;1.90;99.90;;;;;;4369568;32;20078;-76
2022/12/01 08:18:37;;;;;;;13.27;4.22;;;1.80;99.90;;;;;;4356646;32;20090;-77
2022/12/01 08:21:03;;;;;;;3.28;2.05;;;1.80;99.90;;;;;;4345260;32;20593;-75
2022/12/01 08:23:29;;;;;;;4.57;2.92;;;1.80;99.90;;;;;;4344793;32;20131;-77
2022/12/01 08:25:58;;;;;;;5.78;3.10;;;1.80;99.90;;;;;;4358606;32;20503;-74
2022/12/01 08:28:24;;;;;;;8.63;3.58;;;1.80;99.90;;;;;;4357600;32;20518;-77
2022/12/01 08:30:49;;;;;;;7.90;3.72;;;1.80;99.90;;;;;;4347422;32;20095;-77
2022/12/01 08:33:15;;;;;;;2.72;2.47;;;1.80;99.90;;;;;;4320509;32;20146;-77
2022/12/01 08:35:40;;;;;;;9.80;4.45;;;1.80;99.90;;;;;;4334116;32;21086;-76
2022/12/01 08:38:08;;;;;;;1.83;1.70;;;1.90;99.90;;;;;;4340981;32;20825;-76
2022/12/01 08:40:33;;;;;;;15.40;3.58;;;1.90;99.90;;;;;;4351617;32;20597;-76
2022/12/01 08:42:59;;;;;;;4.68;3.20;;;1.80;99.90;;;;;;4355615;32;21206;-75
2022/12/01 08:45:24;;;;;;;3.33;2.72;;;1.90;99.90;;;;;;4364024;32;20688;-77
2022/12/01 08:47:51;;;;;;;2.80;2.20;;;1.90;99.90;;;;;;4347457;32;20118;-77
2022/12/01 08:50:17;;;;;;;4.28;2.97;;;2.00;99.90;;;;;;4330346;32;20323;-73
2022/12/01 08:52:42;;;;;;;4.18;2.83;;;2.00;99.90;;;;;;4321031;32;20102;-77
2022/12/01 08:55:08;;;;;;;3.80;2.62;;;2.00;99.90;;;;;;4337874;32;20188;-77
2022/12/01 08:57:33;;;;;;;14.05;6.22;;;2.00;99.90;;;;;;4348333;32;20398;-74
2022/12/01 08:59:59;;;;;;;4.45;3.22;;;1.90;99.90;;;;;;4341022;32;20200;-74
2022/12/01 09:02:25;;;;;;;9.85;3.85;;;1.80;99.90;;;;;;4333441;32;21056;-76
2022/12/01 09:04:50;;;;;;;17.37;4.35;;;1.80;99.90;;;;;;4330642;32;20219;-76
2022/12/01 09:07:17;;;;;;;2.45;2.28;;;1.80;99.90;;;;;;4342817;32;21295;-75
2022/12/01 09:09:44;;;;;;;9.95;4.53;;;1.90;99.90;;;;;;4353405;32;20880;-76
2022/12/01 09:12:10;;;;;;;16.80;5.00;;;1.90;99.90;;;;;;4360009;32;20103;-76
2022/12/01 09:14:39;;;;;;;10.55;5.53;;;2.00;99.90;;;;;;4354309;32;20703;-75
2022/12/01 09:17:05;;;;;;;8.35;4.75;;;1.90;99.90;;;;;;4365020;32;20849;-74
2022/12/01 09:19:31;;;;;;;11.30;4.75;;;2.00;99.90;;;;;;4344463;32;20180;-77
2022/12/01 09:21:56;;;;;;;9.13;3.80;;;1.90;99.90;;;;;;4350403;32;20066;-76
2022/12/01 09:24:22;;;;;;;4.75;3.62;;;2.00;99.90;;;;;;4349791;32;20252;-76
2022/12/01 09:26:47;;;;;;;7.50;3.42;;;2.00;99.90;;;;;;4359916;32;20464;-76
2022/12/01 09:29:15;;;;;;;8.20;4.45;;;2.00;99.90;;;;;;4354228;32;20078;-77
2022/12/01 09:31:41;;;;;;;8.18;3.90;;;2.00;99.90;;;;;;4350713;32;20078;-76
2022/12/01 09:34:12;;;;;;;7.25;3.87;;;2.00;99.90;;;;;;4341076;32;20227;-78
2022/12/01 09:36:38;;;;;;;18.10;3.90;;;2.00;99.90;;;;;;4344459;32;20249;-77
2022/12/01 09:39:05;;;;;;;5.28;3.87;;;2.00;99.90;;;;;;4357065;32;20118;-76
2022/12/01 09:41:36;;;;;;;7.82;3.15;;;2.00;99.90;;;;;;4359746;32;20110;-76
2022/12/01 09:44:25;;;;;;;2.65;2.45;;;2.10;99.90;;;;;;4358861;32;20469;-77
2022/12/01 09:47:11;;;;;;;9.10;3.15;;;2.00;99.90;;;;;;4358448;32;20109;-78
2022/12/01 09:49:48;;;;;;;5.87;4.22;;;2.10;99.90;;;;;;4343993;32;20634;-77
2022/12/01 09:52:19;;;;;;;2.80;2.10;;;2.00;99.90;;;;;;4347425;32;20321;-78
2022/12/01 09:54:45;;;;;;;;;;;1.90;99.90;;;;;;4368565;32;20683;-79
2022/12/01 09:57:16;;;;;;;10.40;4.28;;;2.00;99.90;;;;;;4366817;32;20052;-79
2022/12/01 09:59:43;;;;;;;2.10;1.90;;;2.00;99.90;;;;;;4359430;32;21644;-79
2022/12/01 10:02:24;;;;;;;3.67;3.33;;;2.10;99.90;;;;;;4354212;32;20665;-77
2022/12/01 10:04:51;;;;;;;;;;;2.10;99.90;;;;;;4353395;32;20231;-77
2022/12/01 10:07:24;;;;;;;4.55;2.83;;;2.10;99.90;;;;;;4351231;32;19968;-77
2022/12/01 10:09:58;;;;;;;3.47;3.00;;;2.20;99.90;;;;;;4361106;32;20137;-77
2022/12/01 10:12:28;;;;;;;5.60;3.35;;;2.20;99.90;;;;;;4359150;32;20588;-78
2022/12/01 10:15:16;;;;;;;9.23;3.77;;;2.50;99.90;;;;;;4367746;32;20338;-79
2022/12/01 10:18:06;;;;;;;3.62;3.33;;;2.40;99.90;;;;;;4353971;32;20304;-81
2022/12/01 10:20:42;;;;;;;10.25;2.75;;;2.30;99.90;;;;;;4333836;32;20078;-81
2022/12/01 10:23:26;;;;;;;4.87;3.62;;;2.30;99.90;;;;;;4348386;32;20089;-82
2022/12/01 10:26:13;;;;;;;3.58;3.22;;;2.20;99.90;;;;;;4353895;32;20098;-77
2022/12/01 10:29:10;;;;;;;7.32;4.47;;;2.20;99.90;;;;;;4353932;32;20119;-79
2022/12/01 10:32:02;;;;;;;3.67;2.72;;;2.20;99.90;;;;;;4319715;32;20300;-78
2022/12/01 10:34:33;;;;;;;15.82;3.97;;;2.10;99.90;;;;;;4330051;32;20110;-79
2022/12/01 10:36:58;;;;;;;7.37;3.22;;;2.10;99.90;;;;;;4343115;32;20145;-79
2022/12/01 10:39:43;;;;;;;6.03;2.53;;;2.10;99.90;;;;;;4354482;32;20704;-78
2022/12/01 10:42:17;;;;;;;30.83;6.32;;;2.10;99.90;;;;;;4346347;32;20114;-79
2022/12/01 10:44:44;;;;;;;7.47;4.12;;;2.20;99.90;;;;;;4349173;32;21659;-79
2022/12/01 10:47:20;;;;;;;2.22;2.05;;;2.30;99.90;;;;;;4345325;32;20494;-79
2022/12/01 10:49:46;;;;;;;14.05;4.03;;;2.30;99.90;;;;;;4340157;32;20368;-79
2022/12/01 10:52:33;;;;;;;5.32;3.12;;;2.40;99.90;;;;;;4346526;32;20981;-80
2022/12/01 10:55:00;;;;;;;5.47;4.10;;;2.30;99.90;;;;;;4340866;32;20135;-78
2022/12/01 10:57:28;;;;;;;8.05;4.97;;;2.30;99.90;;;;;;4356259;32;20105;-80
2022/12/01 10:59:59;;;;;;;7.00;3.33;;;2.40;99.90;;;;;;4345361;32;20755;-79
2022/12/01 11:02:27;;;;;;;6.37;4.47;;;2.40;99.90;;;;;;4345715;32;20202;-77
2022/12/01 11:04:59;;;;;;;17.42;4.95;;;2.30;99.90;;;;;;4336724;32;20097;-79
2022/12/01 11:07:30;;;;;;;10.13;4.97;;;2.30;99.90;;;;;;4358117;32;21194;-79
2022/12/01 11:10:20;;;;;;;5.35;3.30;;;2.30;99.90;;;;;;4359129;32;20617;-79
2022/12/01 11:13:15;;;;;;;3.55;3.22;;;2.30;99.90;;;;;;4351193;32;20110;-79
2022/12/01 11:15:54;;;;;;;6.12;4.22;;;2.50;99.90;;;;;;4351778;32;20129;-79
2022/12/01 11:18:27;;;;;;;1.87;1.75;;;2.40;99.90;;;;;;4334558;32;20102;-79
2022/12/01 11:21:24;;;;;;;3.62;3.05;;;2.40;99.90;;;;;;4336687;32;20217;-84
2022/12/01 11:23:51;;;;;;;7.82;3.58;;;2.30;99.90;;;;;;4346171;32;21053;-80
2022/12/01 11:26:24;;;;;;;5.55;2.92;;;2.30;99.90;;;;;;4355036;32;20102;-80
2022/12/01 11:29:23;;;;;;;3.92;3.05;;;2.30;99.90;;;;;;4360279;32;20379;-80
2022/12/01 11:31:50;;;;;;;4.55;3.47;;;2.40;99.90;;;;;;4338003;32;20482;-79
2022/12/01 11:34:33;;;;;;;4.15;3.03;;;2.30;99.90;;;;;;4345926;32;20162;-78
2022/12/01 11:37:06;;;;;;;3.85;3.37;;;2.40;99.90;;;;;;4350925;32;20233;-77
2022/12/01 11:39:37;;;;;;;3.80;3.17;;;2.30;99.90;;;;;;4366172;32;20169;-77
2022/12/01 11:42:17;;;;;;;17.80;3.83;;;2.30;99.90;;;;;;4368936;32;20121;-78
2022/12/01 11:45:06;;;;;;;5.07;2.97;;;2.30;99.90;;;;;;4372223;32;20101;-78
2022/12/01 11:47:31;;;;;;;4.53;3.12;;;2.30;99.90;;;;;;4350581;32;20205;-80
2022/12/01 11:50:00;;;;;;;4.57;2.47;;;2.40;99.90;;;;;;4348073;32;20280;-80
2022/12/01 11:52:30;;;;;;;5.75;3.05;;;2.40;99.90;;;;;;4350309;32;20431;-79
2022/12/01 11:54:58;;;;;;;1.75;1.62;;;2.40;99.90;;;;;;4341350;32;20167;-78
2022/12/01 11:57:28;;;;;;;8.55;3.78;;;2.40;99.90;;;;;;4358192;32;20427;-79
2022/12/01 11:59:54;;;;;;;6.90;2.80;;;2.40;99.90;;;;;;4338495;32;20273;-78
2022/12/01 12:02:41;;;;;;;2.83;2.28;;;2.40;99.90;;;;;;4342648;32;20196;-78
2022/12/01 12:05:30;;;;;;;3.22;2.50;;;2.40;99.90;;;;;;4340996;32;20235;-78
2022/12/01 12:08:16;;;;;;;1.83;1.73;;;2.40;99.90;;;;;;4336141;32;20155;-79
2022/12/01 12:11:21;;;;;;;5.35;3.47;;;2.40;99.90;;;;;;4354290;32;20253;-79
2022/12/01 12:14:09;;;;;;;1.92;1.83;;;2.50;99.90;;;;;;4344385;32;20118;-77
2022/12/01 12:16:53;;;;;;;4.53;2.55;;;2.40;99.90;;;;;;4338520;32;20126;-79
2022/12/01 12:19:29;;;;;;;2.75;1.80;;;2.50;99.90;;;;;;4344082;32;20847;-79
2022/12/01 12:22:21;;;;;;;7.43;3.60;;;2.50;99.90;;;;;;4349404;32;20204;-78
2022/12/01 12:24:58;;;;;;;2.83;2.40;;;2.50;99.90;;;;;;4340129;32;20253;-81
2022/12/01 12:27:45;;;;;;;5.12;3.50;;;2.50;99.90;;;;;;4360018;32;20136;-81
2022/12/01 12:30:36;;;;;;;3.92;2.55;;;2.40;99.90;;;;;;4329005;32;20176;-81
2022/12/01 12:33:23;;;;;;;3.97;3.12;;;2.40;99.90;;;;;;4338378;32;20106;-80
2022/12/01 12:36:28;;;;;;;5.90;3.30;;;2.50;99.90;;;;;;4334758;32;20178;-78
2022/12/01 12:39:25;;;;;;;3.30;2.95;;;2.60;99.90;;;;;;4339741;32;20614;-81
2022/12/01 12:41:54;;;;;;;1.87;1.77;;;2.60;99.90;;;;;;4324444;32;20109;-78
2022/12/01 12:44:45;;;;;;;3.17;1.98;;;2.50;99.90;;;;;;4338839;32;20808;-76
2022/12/01 12:47:51;;;;;;;2.28;2.08;;;2.60;99.90;;;;;;4338301;32;20157;-77
2022/12/01 12:50:44;;;;;;;6.32;3.17;;;2.50;99.90;;;;;;4325156;32;20109;-82
2022/12/01 12:53:19;;;;;;;4.18;3.45;;;2.50;99.90;;;;;;4338526;32;20090;-79
2022/12/01 12:55:49;;;;;;;2.25;1.92;;;2.50;99.90;;;;;;4367302;32;20102;-78
2022/12/01 12:58:24;;;;;;;1.60;1.50;;;2.60;99.90;;;;;;4365193;32;21057;-76
2022/12/01 13:00:56;;;;;;;5.68;2.22;;;2.60;99.90;;;;;;4356638;32;20102;-80
2022/12/01 13:03:41;;;;;;;2.12;1.58;;;2.50;99.90;;;;;;4353661;32;20718;-79
2022/12/01 13:06:15;;;;;;;2.95;2.03;;;2.60;99.90;;;;;;4353156;32;20376;-78
2022/12/01 13:08:47;;;;;;;3.33;2.33;;;2.60;99.90;;;;;;4364903;32;20073;-78
2022/12/01 13:11:26;;;;;;;3.12;1.87;;;2.60;99.90;;;;;;4366927;32;20392;-77
2022/12/01 13:14:12;;;;;;;1.80;1.60;;;2.60;99.90;;;;;;4359899;32;20276;-84
2022/12/01 13:16:44;;;;;;;3.28;1.50;;;2.60;99.90;;;;;;4359552;32;20303;-85